Time,TemperatureF,DewpointF,PressureIn,WindDirection,WindDirectionDegrees,WindSpeedMPH,WindSpeedGustMPH,Humidity,HourlyPrecipIn,Conditions,Clouds,dailyrainin,SolarRadiationWatts/m^2,SoftwareType,DateUTC
2013-02-15 00:01:00,24.0,19.0,-100.00,NNW,347,2.0,3.0,81,0.00,,,0.00,0.000000,,2013-02-15 07:01:00,
2013-02-15 00:11:00,24.0,19.0,-100.00,NNW,347,2.0,3.0,81,0.00,,,0.00,0.000000,,2013-02-15 07:11:00,
2013-02-15 00:42:00,20.0,16.0,-100.00,NNW,339,3.0,5.0,86,0.00,,,0.00,0.000000,,2013-02-15 07:42:00,
2013-02-15 00:52:00,20.0,16.0,-100.00,NNW,339,3.0,5.0,86,0.00,,,0.00,0.000000,,2013-02-15 07:52:00,
2013-02-15 01:01:00,20.0,16.0,-100.00,NNW,339,3.0,5.0,86,0.00,,,0.00,0.000000,,2013-02-15 08:01:00,
2013-02-15 01:42:00,17.0,15.0,-100.00,NNW,328,2.0,4.0,90,0.00,,,-99.99,0.000000,,2013-02-15 08:42:00,
2013-02-15 01:53:00,17.0,15.0,-100.00,NNW,328,2.0,4.0,90,0.00,,,-99.99,0.000000,,2013-02-15 08:53:00,
2013-02-15 02:01:00,17.0,15.0,-100.00,NNW,328,2.0,4.0,90,0.00,,,-99.99,0.000000,,2013-02-15 09:01:00,
2013-02-15 02:42:00,16.0,14.0,-100.00,NNW,348,3.0,5.0,92,-99.99,,,0.00,0.000000,,2013-02-15 09:42:00,
2013-02-15 02:52:00,16.0,14.0,-100.00,NNW,348,3.0,5.0,92,-99.99,,,0.00,0.000000,,2013-02-15 09:52:00,
2013-02-15 03:01:00,16.0,14.0,-100.00,NNW,348,3.0,5.0,92,-99.99,,,0.00,0.000000,,2013-02-15 10:01:00,
2013-02-15 03:42:00,15.0,13.0,-100.00,ENE,61,1.0,5.0,92,-99.99,,,0.00,0.000000,,2013-02-15 10:42:00,
2013-02-15 03:52:00,15.0,13.0,-100.00,ENE,61,1.0,5.0,92,-99.99,,,0.00,0.000000,,2013-02-15 10:52:00,
2013-02-15 04:01:00,15.0,13.0,-100.00,ENE,61,1.0,5.0,92,-99.99,,,0.00,0.000000,,2013-02-15 11:01:00,
2013-02-15 04:42:00,13.0,11.0,-100.00,NNW,334,3.0,4.0,90,-99.99,,,0.00,0.000000,,2013-02-15 11:42:00,
2013-02-15 04:52:00,13.0,11.0,-100.00,NNW,334,3.0,4.0,90,-99.99,,,0.00,0.000000,,2013-02-15 11:52:00,
2013-02-15 05:01:00,13.0,11.0,-100.00,NNW,334,3.0,4.0,90,-99.99,,,0.00,0.000000,,2013-02-15 12:01:00,
2013-02-15 05:42:00,13.0,11.0,-100.00,North,355,2.0,5.0,91,-99.99,,,0.00,0.000000,,2013-02-15 12:42:00,
2013-02-15 05:52:00,13.0,11.0,-100.00,North,355,2.0,5.0,91,-99.99,,,0.00,0.000000,,2013-02-15 12:52:00,
2013-02-15 06:02:00,13.0,11.0,-100.00,North,355,2.0,5.0,91,-99.99,,,0.00,0.000000,,2013-02-15 13:02:00,
2013-02-15 06:42:00,11.0,8.0,-100.00,NE,46,1.0,3.0,88,-99.99,,,0.00,0.000000,,2013-02-15 13:42:00,
2013-02-15 06:52:00,11.0,8.0,-100.00,NE,46,1.0,3.0,88,-99.99,,,0.00,0.000000,,2013-02-15 13:52:00,
2013-02-15 07:01:00,11.0,8.0,-100.00,NE,46,1.0,3.0,88,-99.99,,,0.00,0.000000,,2013-02-15 14:01:00,
2013-02-15 07:42:00,11.0,8.0,-100.00,North,1,2.0,3.0,89,-99.99,,,0.00,0.000000,,2013-02-15 14:42:00,
2013-02-15 07:52:00,11.0,8.0,-100.00,North,1,2.0,3.0,89,-99.99,,,0.00,0.000000,,2013-02-15 14:52:00,
2013-02-15 08:01:00,11.0,8.0,-100.00,North,1,2.0,3.0,89,-99.99,,,0.00,0.000000,,2013-02-15 15:01:00,
2013-02-15 08:42:00,11.0,8.0,-100.00,North,7,2.0,4.0,86,-99.99,,,0.00,9.000000,,2013-02-15 15:42:00,
2013-02-15 08:52:00,11.0,8.0,-100.00,North,7,2.0,4.0,86,-99.99,,,0.00,9.000000,,2013-02-15 15:52:00,
2013-02-15 09:01:00,11.0,8.0,-100.00,North,7,2.0,4.0,86,-99.99,,,0.00,9.000000,,2013-02-15 16:01:00,
2013-02-15 09:43:00,19.0,17.0,-100.00,NNE,26,2.0,4.0,90,-99.99,,,0.00,75.000000,,2013-02-15 16:43:00,
2013-02-15 09:52:00,19.0,17.0,-100.00,NNE,26,2.0,4.0,90,-99.99,,,0.00,75.000000,,2013-02-15 16:52:00,
2013-02-15 10:01:00,19.0,17.0,-100.00,NNE,26,2.0,4.0,90,-99.99,,,0.00,75.000000,,2013-02-15 17:01:00,
2013-02-15 10:11:00,19.0,17.0,-100.00,NNE,26,2.0,4.0,90,-99.99,,,0.00,75.000000,,2013-02-15 17:11:00,
2013-02-15 10:32:00,28.0,22.0,-100.00,SE,138,2.0,3.0,79,0.00,,,0.00,224.000000,,2013-02-15 17:32:00,
2013-02-15 10:42:00,28.0,22.0,-100.00,SE,138,2.0,3.0,79,0.00,,,0.00,224.000000,,2013-02-15 17:42:00,
2013-02-15 10:52:00,28.0,22.0,-100.00,SE,138,2.0,3.0,79,0.00,,,0.00,224.000000,,2013-02-15 17:52:00,
2013-02-15 11:01:00,28.0,22.0,-100.00,SE,138,2.0,3.0,79,0.00,,,0.00,224.000000,,2013-02-15 18:01:00,
2013-02-15 11:11:00,28.0,22.0,-100.00,SE,138,2.0,3.0,79,0.00,,,0.00,224.000000,,2013-02-15 18:11:00,
2013-02-15 11:42:00,41.0,26.0,-100.00,ESE,120,2.0,5.0,55,0.00,,,0.00,383.000000,,2013-02-15 18:42:00,
2013-02-15 11:52:00,41.0,26.0,-100.00,ESE,120,2.0,5.0,55,0.00,,,0.00,383.000000,,2013-02-15 18:52:00,
2013-02-15 12:01:00,41.0,26.0,-100.00,ESE,120,2.0,5.0,55,0.00,,,0.00,383.000000,,2013-02-15 19:01:00,
2013-02-15 12:42:00,42.0,26.0,-100.00,South,175,3.0,6.0,52,-99.99,,,0.00,523.000000,,2013-02-15 19:42:00,
2013-02-15 12:52:00,42.0,26.0,-100.00,South,175,3.0,6.0,52,-99.99,,,0.00,523.000000,,2013-02-15 19:52:00,
2013-02-15 13:01:00,42.0,26.0,-100.00,South,175,3.0,6.0,52,-99.99,,,0.00,523.000000,,2013-02-15 20:01:00,
2013-02-15 13:42:00,44.0,25.0,-100.00,SSE,160,5.0,7.0,47,0.00,,,-99.99,681.000000,,2013-02-15 20:42:00,
2013-02-15 13:52:00,44.0,25.0,-100.00,SSE,160,5.0,7.0,47,0.00,,,-99.99,681.000000,,2013-02-15 20:52:00,
2013-02-15 14:01:00,44.0,25.0,-100.00,SSE,160,5.0,7.0,47,0.00,,,-99.99,681.000000,,2013-02-15 21:01:00,
2013-02-15 14:11:00,44.0,25.0,-100.00,SSE,160,5.0,7.0,47,0.00,,,-99.99,681.000000,,2013-02-15 21:11:00,
2013-02-15 14:42:00,45.0,25.0,-100.00,SE,127,3.0,8.0,46,-99.99,,,0.00,581.000000,,2013-02-15 21:42:00,
2013-02-15 14:52:00,45.0,25.0,-100.00,SE,127,3.0,8.0,46,-99.99,,,0.00,581.000000,,2013-02-15 21:52:00,
2013-02-15 15:02:00,45.0,25.0,-100.00,SE,127,3.0,8.0,46,-99.99,,,0.00,581.000000,,2013-02-15 22:02:00,
2013-02-15 15:11:00,45.0,25.0,-100.00,SE,127,3.0,8.0,46,-99.99,,,0.00,581.000000,,2013-02-15 22:11:00,
2013-02-15 15:42:00,41.0,24.0,-100.00,SW,217,4.0,8.0,50,0.00,,,0.00,391.000000,,2013-02-15 22:42:00,
2013-02-15 15:52:00,41.0,24.0,-100.00,SW,217,4.0,8.0,50,0.00,,,0.00,391.000000,,2013-02-15 22:52:00,
2013-02-15 16:02:00,41.0,24.0,-100.00,SW,217,4.0,8.0,50,0.00,,,0.00,391.000000,,2013-02-15 23:02:00,
2013-02-15 16:11:00,41.0,24.0,-100.00,SW,217,4.0,8.0,50,0.00,,,0.00,391.000000,,2013-02-15 23:11:00,
2013-02-15 16:32:00,40.0,26.0,-100.00,SSW,201,4.0,10.0,56,0.00,,,-99.99,153.000000,,2013-02-15 23:32:00,
2013-02-15 16:42:00,40.0,26.0,-100.00,SSW,201,4.0,10.0,56,0.00,,,-99.99,153.000000,,2013-02-15 23:42:00,
2013-02-15 16:52:00,40.0,26.0,-100.00,SSW,201,4.0,10.0,56,0.00,,,-99.99,153.000000,,2013-02-15 23:52:00,
2013-02-15 17:02:00,40.0,26.0,-100.00,SSW,201,4.0,10.0,56,0.00,,,-99.99,153.000000,,2013-02-16 00:02:00,
2013-02-15 17:11:00,40.0,26.0,-100.00,SSW,201,4.0,10.0,56,0.00,,,-99.99,153.000000,,2013-02-16 00:11:00,
2013-02-15 17:32:00,40.0,26.0,-100.00,WSW,252,3.0,6.0,58,0.00,,,0.00,92.000000,,2013-02-16 00:32:00,
2013-02-15 17:42:00,40.0,26.0,-100.00,WSW,252,3.0,6.0,58,0.00,,,0.00,92.000000,,2013-02-16 00:42:00,
2013-02-15 17:52:00,40.0,26.0,-100.00,WSW,252,3.0,6.0,58,0.00,,,0.00,92.000000,,2013-02-16 00:52:00,
2013-02-15 18:02:00,40.0,26.0,-100.00,WSW,252,3.0,6.0,58,0.00,,,0.00,92.000000,,2013-02-16 01:02:00,
2013-02-15 18:11:00,40.0,26.0,-100.00,WSW,252,3.0,6.0,58,0.00,,,0.00,92.000000,,2013-02-16 01:11:00,
2013-02-15 18:42:00,37.0,26.0,-100.00,SE,145,2.0,5.0,64,0.00,,,0.00,19.000000,,2013-02-16 01:42:00,
2013-02-15 18:52:00,37.0,26.0,-100.00,SE,145,2.0,5.0,64,0.00,,,0.00,19.000000,,2013-02-16 01:52:00,
2013-02-15 19:01:00,37.0,26.0,-100.00,SE,145,2.0,5.0,64,0.00,,,0.00,19.000000,,2013-02-16 02:01:00,
2013-02-15 19:11:00,37.0,26.0,-100.00,SE,145,2.0,5.0,64,0.00,,,0.00,19.000000,,2013-02-16 02:11:00,
2013-02-15 19:42:00,36.0,27.0,-100.00,East,90,3.0,5.0,70,0.00,,,0.00,0.000000,,2013-02-16 02:42:00,
2013-02-15 19:52:00,36.0,27.0,-100.00,East,90,3.0,5.0,70,0.00,,,0.00,0.000000,,2013-02-16 02:52:00,
2013-02-15 20:01:00,36.0,27.0,-100.00,East,90,3.0,5.0,70,0.00,,,0.00,0.000000,,2013-02-16 03:01:00,
2013-02-15 20:11:00,36.0,27.0,-100.00,East,90,3.0,5.0,70,0.00,,,0.00,0.000000,,2013-02-16 03:11:00,
2013-02-15 20:42:00,30.0,25.0,-100.00,North,352,1.0,4.0,83,0.00,,,0.00,0.000000,,2013-02-16 03:42:00,
2013-02-15 20:52:00,30.0,25.0,-100.00,North,352,1.0,4.0,83,0.00,,,0.00,0.000000,,2013-02-16 03:52:00,
2013-02-15 21:01:00,30.0,25.0,-100.00,North,352,1.0,4.0,83,0.00,,,0.00,0.000000,,2013-02-16 04:01:00,
2013-02-15 21:11:00,30.0,25.0,-100.00,North,352,1.0,4.0,83,0.00,,,0.00,0.000000,,2013-02-16 04:11:00,
2013-02-15 21:42:00,27.0,25.0,-100.00,NNW,332,2.0,5.0,91,0.00,,,0.00,0.000000,,2013-02-16 04:42:00,
2013-02-15 21:52:00,27.0,25.0,-100.00,NNW,332,2.0,5.0,91,0.00,,,0.00,0.000000,,2013-02-16 04:52:00,
2013-02-15 22:01:00,27.0,25.0,-100.00,NNW,332,2.0,5.0,91,0.00,,,0.00,0.000000,,2013-02-16 05:01:00,
2013-02-15 22:11:00,27.0,25.0,-100.00,NNW,332,2.0,5.0,91,0.00,,,0.00,0.000000,,2013-02-16 05:11:00,
2013-02-15 22:42:00,26.0,25.0,-100.00,North,357,2.0,4.0,94,0.00,,,-99.99,0.000000,,2013-02-16 05:42:00,
2013-02-15 22:52:00,26.0,25.0,-100.00,North,357,2.0,4.0,94,0.00,,,-99.99,0.000000,,2013-02-16 05:52:00,
2013-02-15 23:01:00,26.0,25.0,-100.00,North,357,2.0,4.0,94,0.00,,,-99.99,0.000000,,2013-02-16 06:01:00,
2013-02-15 23:11:00,26.0,25.0,-100.00,North,357,2.0,4.0,94,0.00,,,-99.99,0.000000,,2013-02-16 06:11:00,
2013-02-15 23:42:00,24.0,23.0,-100.00,NNW,338,2.0,4.0,94,0.00,,,-99.99,0.000000,,2013-02-16 06:42:00,
2013-02-15 23:52:00,24.0,23.0,-100.00,NNW,338,2.0,4.0,94,0.00,,,-99.99,0.000000,,2013-02-16 06:52:00,